Time;durP1;ratioP1;P1;durP2;ratioP2;P2;SDS_P1;SDS_P2;PMS_P1;PMS_P2;Temp;Humidity;BMP_temperature;BMP_pressure;BME280_temperature;BME280_humidity;BME280_pressure;Samples;Min_cycle;Max_cycle;Signal;HPM_P1;HPM_P2
2022/06/30 00:01:22;;;;;;;8.00;3.40;;;22.00;72.70;;;;;;4996735;28;20037;-86
2022/06/30 00:03:48;;;;;;;6.80;3.20;;;22.00;72.80;;;;;;5014605;28;20049;-86
2022/06/30 00:06:13;;;;;;;6.10;3.83;;;22.00;72.90;;;;;;5013413;28;20041;-86
2022/06/30 00:08:39;;;;;;;6.57;3.50;;;21.90;73.00;;;;;;4996581;28;20084;-85
2022/06/30 00:11:07;;;;;;;6.03;3.88;;;21.90;73.10;;;;;;4996398;28;20470;-85
2022/06/30 00:13:37;;;;;;;5.68;3.58;;;21.80;73.20;;;;;;5013068;28;20029;-87
2022/06/30 00:16:05;;;;;;;5.18;3.33;;;21.80;73.40;;;;;;5012711;28;20026;-86
2022/06/30 00:18:32;;;;;;;8.60;4.13;;;21.80;73.40;;;;;;5013026;28;20469;-84
2022/06/30 00:20:58;;;;;;;7.13;4.30;;;21.80;73.50;;;;;;5012517;28;20049;-86
2022/06/30 00:23:24;;;;;;;5.88;4.15;;;21.70;73.60;;;;;;5014277;28;20105;-86
2022/06/30 00:25:50;;;;;;;6.57;4.25;;;21.70;73.60;;;;;;5013137;28;20133;-85
2022/06/30 00:28:18;;;;;;;5.35;3.92;;;21.70;73.70;;;;;;5013031;28;20026;-85
2022/06/30 00:30:44;;;;;;;6.55;4.38;;;21.70;73.70;;;;;;5012501;28;20021;-87
2022/06/30 00:33:10;;;;;;;5.88;3.97;;;21.60;73.80;;;;;;5013684;28;20086;-88
2022/06/30 00:35:36;;;;;;;6.05;4.35;;;21.60;73.90;;;;;;5014473;28;20053;-89
2022/06/30 00:38:05;;;;;;;5.38;4.10;;;21.60;74.00;;;;;;5015301;28;20018;-87
2022/06/30 00:40:38;;;;;;;7.20;4.70;;;21.60;74.10;;;;;;5013908;28;20052;-88
2022/06/30 00:43:04;;;;;;;6.13;4.55;;;21.60;74.20;;;;;;5013514;28;20041;-87
2022/06/30 00:45:30;;;;;;;8.70;5.65;;;21.50;74.20;;;;;;5012629;28;20030;-86
2022/06/30 00:47:56;;;;;;;8.60;5.32;;;21.50;74.30;;;;;;5012587;28;20018;-86
2022/06/30 00:50:22;;;;;;;8.57;5.32;;;21.50;74.40;;;;;;4996156;28;20029;-85
2022/06/30 00:52:50;;;;;;;9.75;4.82;;;21.50;74.40;;;;;;5012740;28;20057;-86
2022/06/30 00:55:17;;;;;;;6.78;4.80;;;21.40;74.50;;;;;;5012251;28;20018;-86
2022/06/30 00:57:44;;;;;;;8.43;5.00;;;21.50;74.70;;;;;;5012008;28;20053;-85
2022/06/30 01:00:11;;;;;;;7.15;5.15;;;21.40;74.80;;;;;;4996100;28;20088;-85
2022/06/30 01:02:37;;;;;;;6.40;5.05;;;21.40;75.00;;;;;;5012602;28;20033;-87
2022/06/30 01:05:03;;;;;;;9.82;5.80;;;21.40;75.10;;;;;;4996245;28;20514;-85
2022/06/30 01:07:30;;;;;;;8.60;5.20;;;21.40;75.30;;;;;;4996373;28;20018;-86
2022/06/30 01:12:44;;;;;;;8.95;5.63;;;21.30;75.40;;;;;;5015082;28;20029;-87
2022/06/30 01:15:15;;;;;;;9.40;5.90;;;21.30;75.50;;;;;;4997069;28;20022;-88
2022/06/30 01:17:41;;;;;;;10.75;5.80;;;21.30;75.60;;;;;;4997334;28;20033;-88
2022/06/30 01:20:08;;;;;;;8.60;5.90;;;21.30;75.70;;;;;;4996996;28;20050;-88
2022/06/30 01:22:33;;;;;;;7.15;5.68;;;21.30;75.80;;;;;;5014626;28;20033;-88
2022/06/30 01:24:59;;;;;;;8.75;5.97;;;21.20;75.90;;;;;;5014120;28;20454;-87
2022/06/30 01:27:25;;;;;;;9.18;5.90;;;21.20;76.10;;;;;;5015002;28;20064;-87
2022/06/30 01:29:50;;;;;;;9.52;6.05;;;21.20;76.30;;;;;;5013087;28;20060;-87
2022/06/30 01:32:17;;;;;;;9.25;6.15;;;21.20;76.40;;;;;;5015278;28;20018;-87
2022/06/30 01:34:43;;;;;;;11.07;5.80;;;21.10;76.50;;;;;;5023034;28;20050;-87
2022/06/30 01:37:08;;;;;;;9.80;6.43;;;21.10;77.20;;;;;;5024620;28;20026;-87
2022/06/30 01:39:34;;;;;;;9.30;6.82;;;21.10;76.80;;;;;;5023799;28;20369;-85
2022/06/30 01:42:00;;;;;;;9.98;5.97;;;21.10;77.00;;;;;;5008474;28;20370;-85
2022/06/30 01:44:26;;;;;;;9.50;7.00;;;21.00;77.30;;;;;;5022118;28;20168;-86
2022/06/30 01:46:52;;;;;;;11.23;7.53;;;21.00;77.80;;;;;;5018729;28;20058;-87
2022/06/30 01:49:18;;;;;;;8.88;5.97;;;21.00;78.20;;;;;;5003112;28;20121;-85
2022/06/30 01:51:44;;;;;;;9.18;6.78;;;21.00;78.40;;;;;;5022417;28;20454;-84
2022/06/30 01:54:10;;;;;;;8.93;6.70;;;21.00;78.80;;;;;;5024279;28;20022;-85
2022/06/30 01:56:36;;;;;;;8.88;7.20;;;20.90;79.10;;;;;;5004981;28;20025;-87
2022/06/30 01:59:02;;;;;;;9.20;6.95;;;20.90;79.20;;;;;;5018359;28;20026;-87
2022/06/30 02:01:28;;;;;;;8.55;6.18;;;20.90;79.20;;;;;;5019614;28;20549;-87
2022/06/30 02:03:53;;;;;;;10.05;7.15;;;20.90;79.10;;;;;;5018700;28;20030;-87
2022/06/30 02:06:19;;;;;;;9.18;7.53;;;20.90;79.00;;;;;;5016691;28;20065;-86
2022/06/30 02:08:44;;;;;;;10.57;7.30;;;20.90;78.90;;;;;;5015853;28;20091;-85
2022/06/30 02:11:10;;;;;;;7.93;6.22;;;20.90;78.90;;;;;;5015505;28;20041;-85
2022/06/30 02:13:36;;;;;;;10.90;7.22;;;20.90;78.90;;;;;;4998810;28;20026;-85
2022/06/30 02:16:01;;;;;;;10.45;7.57;;;20.90;79.00;;;;;;5016163;28;20037;-87
2022/06/30 02:18:27;;;;;;;9.52;7.13;;;20.90;79.00;;;;;;4999309;28;20025;-87
2022/06/30 02:20:53;;;;;;;7.82;6.13;;;20.90;79.20;;;;;;5016969;28;20046;-87
2022/06/30 02:23:18;;;;;;;9.40;6.72;;;20.90;79.50;;;;;;5000469;28;20481;-86
2022/06/30 02:25:44;;;;;;;9.77;7.07;;;20.90;79.60;;;;;;5001937;28;20025;-87
2022/06/30 02:28:10;;;;;;;8.68;7.18;;;20.90;79.70;;;;;;5002551;28;20053;-86
2022/06/30 02:30:35;;;;;;;9.25;6.85;;;20.80;79.80;;;;;;5002075;28;20466;-87
2022/06/30 02:33:01;;;;;;;10.85;7.22;;;20.80;80.00;;;;;;5018250;28;20374;-87
2022/06/30 02:35:27;;;;;;;10.57;7.57;;;20.80;80.10;;;;;;5020523;28;20029;-87
2022/06/30 02:37:57;;;;;;;9.90;8.05;;;20.70;80.30;;;;;;5019693;28;20029;-87
2022/06/30 02:40:23;;;;;;;10.18;7.95;;;20.70;80.30;;;;;;5028321;28;20052;-87
2022/06/30 02:42:49;;;;;;;10.00;7.50;;;20.70;80.50;;;;;;5032952;28;20034;-87
2022/06/30 02:45:15;;;;;;;9.35;7.05;;;20.70;80.80;;;;;;5007986;28;20026;-86
2022/06/30 02:47:42;;;;;;;11.27;8.23;;;20.70;81.30;;;;;;5031321;28;20020;-86
2022/06/30 02:50:11;;;;;;;11.68;7.88;;;20.60;81.80;;;;;;5033699;28;20044;-86
2022/06/30 02:52:37;;;;;;;9.20;7.38;;;20.60;82.10;;;;;;5033997;28;20032;-86
2022/06/30 02:55:06;;;;;;;10.07;8.15;;;20.50;82.40;;;;;;5034816;28;20018;-86
2022/06/30 02:57:34;;;;;;;12.52;9.93;;;20.50;82.70;;;;;;5035160;28;20045;-86
2022/06/30 03:00:00;;;;;;;11.55;8.90;;;20.50;82.90;;;;;;5030795;28;20374;-86
2022/06/30 03:02:25;;;;;;;9.60;8.13;;;20.50;83.10;;;;;;5026236;28;20034;-87
2022/06/30 03:04:51;;;;;;;11.20;8.55;;;20.40;83.30;;;;;;5020760;28;20455;-87
2022/06/30 03:07:16;;;;;;;10.73;8.48;;;20.40;83.40;;;;;;5000748;28;20117;-89
2022/06/30 03:09:43;;;;;;;11.38;7.53;;;20.40;83.70;;;;;;5019444;28;20117;-88
2022/06/30 03:12:09;;;;;;;11.52;8.70;;;20.30;83.80;;;;;;5019210;28;20069;-87
2022/06/30 03:14:34;;;;;;;11.52;8.50;;;20.40;84.00;;;;;;5005238;28;20026;-87
2022/06/30 03:17:00;;;;;;;13.82;8.80;;;20.30;84.10;;;;;;5002427;28;20080;-87
2022/06/30 03:19:25;;;;;;;10.90;8.70;;;20.30;84.10;;;;;;5018480;28;20049;-87
2022/06/30 03:21:53;;;;;;;12.43;8.43;;;20.30;84.40;;;;;;4998701;28;20044;-86
2022/06/30 03:24:20;;;;;;;11.05;9.15;;;20.30;84.40;;;;;;5015090;28;20026;-87
2022/06/30 03:26:46;;;;;;;12.75;8.57;;;20.30;84.50;;;;;;5015136;28;20022;-87
2022/06/30 03:29:11;;;;;;;14.45;9.15;;;20.20;84.60;;;;;;5017574;28;20029;-88
2022/06/30 03:31:37;;;;;;;9.85;8.65;;;20.20;84.70;;;;;;5014567;28;20355;-87
2022/06/30 03:34:03;;;;;;;10.40;9.07;;;20.20;84.80;;;;;;4998082;28;20477;-88
2022/06/30 03:36:29;;;;;;;13.38;9.07;;;20.10;84.90;;;;;;5014438;28;20394;-88
2022/06/30 03:38:54;;;;;;;12.77;9.45;;;20.10;85.00;;;;;;4998407;28;20037;-87
2022/06/30 03:41:20;;;;;;;10.82;9.15;;;20.10;85.20;;;;;;5014186;28;20061;-86
2022/06/30 03:43:46;;;;;;;13.52;9.70;;;20.00;85.30;;;;;;5003140;28;20378;-86
2022/06/30 03:46:11;;;;;;;12.23;10.00;;;20.00;85.40;;;;;;5016643;28;20421;-86
2022/06/30 03:48:38;;;;;;;13.00;9.07;;;20.00;85.60;;;;;;5015281;28;20121;-86
2022/06/30 03:51:04;;;;;;;13.80;10.65;;;20.00;85.80;;;;;;4998531;28;20030;-87
2022/06/30 03:53:30;;;;;;;14.50;9.60;;;20.00;85.90;;;;;;4998211;28;20025;-86
2022/06/30 03:55:56;;;;;;;13.07;10.82;;;20.00;85.90;;;;;;5014016;28;20026;-86
2022/06/30 03:58:22;;;;;;;12.75;11.25;;;19.90;86.00;;;;;;5016665;28;20034;-86
2022/06/30 04:00:48;;;;;;;12.25;9.90;;;19.90;86.10;;;;;;5018708;28;20030;-87
2022/06/30 04:03:13;;;;;;;18.83;10.43;;;20.00;86.30;;;;;;5016043;28;20025;-87
2022/06/30 04:05:40;;;;;;;13.07;9.90;;;19.90;86.40;;;;;;5016229;28;20022;-86
2022/06/30 04:08:06;;;;;;;14.07;10.45;;;20.00;86.50;;;;;;4998259;28;20026;-87
2022/06/30 04:10:32;;;;;;;11.95;10.48;;;20.00;86.60;;;;;;4999040;28;20032;-86
2022/06/30 04:12:58;;;;;;;14.75;10.70;;;20.00;86.70;;;;;;5013608;28;20018;-86
2022/06/30 04:15:23;;;;;;;13.68;10.75;;;20.00;86.80;;;;;;5010138;28;20366;-86
2022/06/30 04:17:49;;;;;;;15.00;10.93;;;20.00;87.00;;;;;;5013077;28;20034;-88
2022/06/30 04:20:17;;;;;;;13.50;11.10;;;20.00;87.10;;;;;;5011270;28;20054;-88
2022/06/30 04:22:51;;;;;;;15.43;12.27;;;19.90;87.20;;;;;;5014096;28;20053;-88
2022/06/30 04:25:18;;;;;;;14.45;10.85;;;19.90;87.50;;;;;;5011234;28;20364;-85
2022/06/30 04:27:46;;;;;;;15.75;11.75;;;20.00;87.70;;;;;;5013984;28;20030;-87
2022/06/30 04:30:13;;;;;;;13.68;10.85;;;20.00;87.80;;;;;;5014333;28;20030;-86
2022/06/30 04:32:40;;;;;;;12.90;11.25;;;20.00;88.00;;;;;;5014398;28;20072;-87
2022/06/30 04:35:11;;;;;;;15.18;11.73;;;20.00;88.10;;;;;;5014745;28;20026;-87
2022/06/30 04:37:38;;;;;;;15.73;11.52;;;20.00;88.20;;;;;;5013056;28;20109;-86
2022/06/30 04:42:49;;;;;;;14.57;11.80;;;20.10;88.50;;;;;;5014744;28;20083;-87
2022/06/30 04:45:15;;;;;;;15.63;12.35;;;20.10;88.70;;;;;;5013325;28;20109;-87
2022/06/30 04:47:41;;;;;;;15.80;13.02;;;20.10;88.80;;;;;;5012933;28;20124;-87
2022/06/30 04:50:07;;;;;;;16.45;12.27;;;20.10;88.90;;;;;;4980235;28;20025;-84
2022/06/30 04:52:33;;;;;;;17.88;13.23;;;20.10;89.10;;;;;;4995829;28;20018;-84
2022/06/30 04:54:59;;;;;;;17.52;12.88;;;20.10;89.10;;;;;;5013319;28;20034;-84
2022/06/30 04:57:25;;;;;;;15.68;12.18;;;20.10;89.20;;;;;;5012217;28;20034;-84
2022/06/30 04:59:50;;;;;;;22.80;13.07;;;20.10;89.30;;;;;;5013369;28;20370;-84
2022/06/30 05:02:16;;;;;;;19.08;12.88;;;20.20;89.40;;;;;;4995745;28;20133;-85
2022/06/30 05:04:47;;;;;;;19.60;13.57;;;20.20;89.60;;;;;;5013680;28;20022;-85
2022/06/30 05:07:13;;;;;;;21.10;13.95;;;20.30;89.80;;;;;;5010777;28;20030;-84
2022/06/30 05:09:39;;;;;;;19.65;13.45;;;20.30;89.90;;;;;;4997504;28;20029;-84
2022/06/30 05:12:05;;;;;;;17.13;12.60;;;20.30;90.00;;;;;;4982229;28;20454;-84
2022/06/30 05:14:30;;;;;;;21.60;13.98;;;20.30;90.00;;;;;;4999483;28;20155;-85
2022/06/30 05:16:56;;;;;;;19.25;14.30;;;20.30;90.10;;;;;;4999756;28;20458;-83
2022/06/30 05:19:22;;;;;;;21.02;14.02;;;20.40;90.20;;;;;;4983660;28;20054;-82
2022/06/30 05:21:47;;;;;;;17.65;14.15;;;20.40;90.20;;;;;;5016286;28;20034;-83
2022/06/30 05:26:57;;;;;;;;;;;20.50;90.30;;;;;;5009314;28;20057;-83
2022/06/30 05:29:23;;;;;;;15.50;12.38;;;20.50;90.30;;;;;;5002062;28;19905;-83
2022/06/30 05:31:50;;;;;;;17.42;14.45;;;20.50;90.20;;;;;;4988015;28;20030;-83
2022/06/30 05:34:22;;;;;;;16.63;12.30;;;20.60;90.20;;;;;;5004489;28;20033;-83
2022/06/30 05:36:48;;;;;;;17.48;14.93;;;20.60;90.20;;;;;;5005644;28;20430;-82
2022/06/30 05:39:14;;;;;;;18.20;14.75;;;20.60;90.20;;;;;;5004018;28;20010;-83
2022/06/30 05:41:40;;;;;;;15.90;13.95;;;20.60;90.20;;;;;;4988190;28;20112;-83
2022/06/30 05:44:08;;;;;;;17.88;14.98;;;20.60;90.10;;;;;;5006393;28;20022;-83
2022/06/30 05:46:36;;;;;;;16.95;14.05;;;20.70;90.10;;;;;;5011016;28;20018;-83
2022/06/30 05:49:02;;;;;;;19.02;14.25;;;20.70;90.10;;;;;;4979137;28;20026;-83
2022/06/30 05:51:28;;;;;;;17.40;14.50;;;20.70;90.20;;;;;;4996480;28;20019;-87
2022/06/30 05:53:53;;;;;;;18.73;14.40;;;20.70;90.10;;;;;;4997215;28;20034;-87
2022/06/30 05:56:19;;;;;;;15.88;13.43;;;20.70;90.10;;;;;;4997151;28;20034;-87
2022/06/30 05:58:45;;;;;;;18.05;13.50;;;20.80;90.20;;;;;;4997587;28;20052;-86
2022/06/30 06:01:11;;;;;;;17.65;14.35;;;20.70;90.20;;;;;;4996533;28;20031;-86
2022/06/30 06:03:37;;;;;;;15.98;12.68;;;20.80;90.20;;;;;;4997071;28;20022;-86
2022/06/30 06:06:02;;;;;;;15.55;12.88;;;20.80;90.20;;;;;;4980650;28;20438;-87
2022/06/30 06:08:28;;;;;;;15.93;13.07;;;20.80;90.20;;;;;;5013194;28;20026;-87
2022/06/30 06:10:54;;;;;;;15.98;13.73;;;20.90;90.20;;;;;;5016396;28;20037;-86
2022/06/30 06:13:23;;;;;;;19.45;13.88;;;20.80;90.20;;;;;;4997857;28;20026;-86
2022/06/30 06:15:48;;;;;;;17.55;12.93;;;20.90;90.20;;;;;;5014932;28;20028;-86
2022/06/30 06:18:15;;;;;;;16.95;14.85;;;20.90;90.20;;;;;;5000905;28;20030;-86
2022/06/30 06:20:42;;;;;;;15.82;13.93;;;20.90;90.20;;;;;;5015564;28;20069;-87
2022/06/30 06:23:08;;;;;;;16.80;14.02;;;21.00;90.30;;;;;;4984022;28;20038;-87
2022/06/30 06:25:34;;;;;;;19.90;15.02;;;21.00;90.30;;;;;;5017306;28;20092;-85
2022/06/30 06:30:43;;;;;;;17.92;14.13;;;21.00;90.30;;;;;;5004772;28;20044;-86
2022/06/30 06:33:10;;;;;;;17.48;14.00;;;21.10;90.30;;;;;;5016633;28;20101;-86
2022/06/30 06:35:36;;;;;;;17.33;14.45;;;21.10;90.30;;;;;;5017801;28;20398;-87
2022/06/30 06:38:01;;;;;;;16.63;13.50;;;21.10;90.40;;;;;;5015166;28;20102;-86
2022/06/30 06:40:28;;;;;;;19.98;14.05;;;21.20;90.40;;;;;;4999634;28;20022;-87
2022/06/30 06:42:54;;;;;;;18.88;12.43;;;21.20;90.40;;;;;;5015319;28;20036;-85
2022/06/30 06:45:19;;;;;;;16.85;13.43;;;21.30;90.40;;;;;;5014844;28;20026;-86
2022/06/30 06:47:46;;;;;;;15.10;12.38;;;21.30;90.30;;;;;;4998229;28;20033;-87
2022/06/30 06:50:11;;;;;;;14.75;11.32;;;21.40;90.10;;;;;;5015026;28;20014;-86
2022/06/30 06:52:37;;;;;;;13.55;11.85;;;21.30;90.00;;;;;;5016222;28;20028;-87
2022/06/30 06:55:03;;;;;;;16.75;11.95;;;21.40;89.50;;;;;;5015412;28;20126;-86
2022/06/30 06:57:40;;;;;;;16.38;12.32;;;21.40;89.20;;;;;;5014501;28;20029;-86
2022/06/30 07:00:11;;;;;;;15.43;11.43;;;21.40;89.00;;;;;;5005956;28;20072;-89
2022/06/30 07:02:40;;;;;;;15.32;12.85;;;21.50;88.80;;;;;;4996515;28;20089;-88
2022/06/30 07:05:07;;;;;;;14.43;12.15;;;21.60;88.60;;;;;;5028937;28;20026;-87
2022/06/30 07:07:34;;;;;;;13.80;11.50;;;21.60;88.40;;;;;;5018736;28;20034;-85
2022/06/30 07:09:59;;;;;;;17.77;13.48;;;21.60;88.20;;;;;;5016071;28;20121;-87
2022/06/30 07:12:25;;;;;;;16.20;12.65;;;21.70;88.20;;;;;;5021852;28;20056;-87
2022/06/30 07:14:51;;;;;;;14.93;12.75;;;21.80;88.10;;;;;;5027612;28;20501;-85
2022/06/30 07:17:16;;;;;;;16.33;13.20;;;21.80;88.00;;;;;;5008812;28;20118;-86
2022/06/30 07:19:42;;;;;;;15.98;13.43;;;21.90;87.90;;;;;;4986094;28;20054;-87
2022/06/30 07:22:08;;;;;;;15.70;14.05;;;21.90;87.70;;;;;;5000602;28;20052;-87
2022/06/30 07:24:34;;;;;;;17.13;14.10;;;21.90;87.60;;;;;;4984067;28;20026;-85
2022/06/30 07:27:00;;;;;;;15.60;13.65;;;22.00;87.60;;;;;;4998309;28;20032;-86
2022/06/30 07:29:26;;;;;;;16.63;13.07;;;22.00;87.50;;;;;;4997906;28;20022;-85
2022/06/30 07:31:53;;;;;;;15.18;12.95;;;22.00;87.50;;;;;;5013344;28;20066;-86
2022/06/30 07:34:19;;;;;;;18.38;13.50;;;22.10;87.40;;;;;;4998177;28;20030;-86
2022/06/30 07:36:44;;;;;;;16.00;13.48;;;22.20;87.30;;;;;;5014070;28;20083;-87
2022/06/30 07:39:10;;;;;;;18.13;12.77;;;22.20;87.00;;;;;;4981622;28;20416;-88
2022/06/30 07:41:36;;;;;;;17.63;13.82;;;22.20;87.00;;;;;;5015328;28;20042;-87
2022/06/30 07:44:01;;;;;;;20.05;14.52;;;22.30;87.00;;;;;;4981579;28;20481;-87
2022/06/30 07:46:28;;;;;;;16.40;14.00;;;22.30;86.80;;;;;;4981014;28;20026;-87
2022/06/30 07:48:53;;;;;;;17.50;14.77;;;22.40;86.70;;;;;;5014237;28;20037;-86
2022/06/30 07:51:20;;;;;;;17.73;14.43;;;22.40;86.60;;;;;;5014641;28;20037;-87
2022/06/30 07:53:46;;;;;;;19.17;14.65;;;22.50;86.50;;;;;;5014647;28;20042;-87
2022/06/30 07:56:13;;;;;;;16.75;15.02;;;22.50;86.50;;;;;;5013705;28;20069;-85
2022/06/30 07:58:39;;;;;;;19.65;14.30;;;22.50;86.40;;;;;;4996943;28;20018;-88
2022/06/30 08:01:05;;;;;;;16.48;14.18;;;22.60;86.40;;;;;;5014710;28;20026;-88
2022/06/30 08:03:30;;;;;;;18.77;14.50;;;22.60;86.10;;;;;;4996478;28;20037;-85
2022/06/30 08:05:59;;;;;;;17.17;14.05;;;22.70;86.00;;;;;;5014327;28;20414;-86
2022/06/30 08:08:24;;;;;;;19.55;15.38;;;22.70;85.70;;;;;;5013302;28;20021;-87
2022/06/30 08:10:50;;;;;;;16.73;14.35;;;22.70;85.60;;;;;;5012959;28;20454;-85
2022/06/30 08:13:16;;;;;;;15.95;13.13;;;22.80;85.70;;;;;;5013541;28;20481;-87
2022/06/30 08:15:41;;;;;;;17.77;13.25;;;22.80;85.60;;;;;;4996819;28;20026;-85
2022/06/30 08:18:08;;;;;;;20.02;12.20;;;22.80;85.40;;;;;;4996759;28;20087;-85
2022/06/30 08:20:34;;;;;;;12.55;10.70;;;22.90;85.20;;;;;;5012671;28;20056;-84
2022/06/30 08:23:00;;;;;;;15.82;11.55;;;22.90;85.00;;;;;;5014747;28;20485;-88
2022/06/30 08:25:26;;;;;;;15.70;10.63;;;22.90;84.70;;;;;;5013015;28;20029;-86
2022/06/30 08:27:52;;;;;;;16.40;11.73;;;23.00;84.30;;;;;;5007477;28;20029;-86
2022/06/30 08:30:18;;;;;;;14.35;8.93;;;23.00;83.90;;;;;;5004855;28;20021;-86
2022/06/30 08:32:44;;;;;;;14.85;9.77;;;23.00;83.60;;;;;;5007790;28;20466;-88
2022/06/30 08:35:10;;;;;;;15.02;10.07;;;23.00;83.40;;;;;;4987595;28;20030;-86
2022/06/30 08:37:36;;;;;;;13.75;9.38;;;23.10;83.20;;;;;;5010085;28;20533;-85
2022/06/30 08:42:47;;;;;;;11.60;8.10;;;23.20;82.60;;;;;;4995010;28;20382;-87
2022/06/30 08:45:20;;;;;;;14.48;8.60;;;23.20;82.00;;;;;;4961271;28;20023;-86
2022/06/30 08:47:47;;;;;;;12.38;6.95;;;23.20;81.80;;;;;;4993277;28;20543;-84
2022/06/30 08:50:17;;;;;;;9.98;5.47;;;23.20;81.80;;;;;;4994838;28;20034;-88
2022/06/30 08:52:53;;;;;;;11.20;5.85;;;23.30;81.50;;;;;;4994070;28;20027;-86
2022/06/30 08:55:23;;;;;;;7.68;5.45;;;23.30;81.20;;;;;;4994589;28;20493;-86
2022/06/30 08:57:51;;;;;;;8.88;5.22;;;23.40;81.00;;;;;;5010230;28;20362;-87
2022/06/30 09:00:17;;;;;;;10.18;5.15;;;23.40;80.60;;;;;;4994458;28;20030;-88
2022/06/30 09:02:46;;;;;;;8.27;4.30;;;23.40;80.40;;;;;;4993074;28;20474;-84
2022/06/30 09:05:13;;;;;;;8.10;3.63;;;23.50;80.20;;;;;;5009502;28;20027;-88
2022/06/30 09:07:39;;;;;;;6.55;4.28;;;23.60;79.90;;;;;;4993104;28;20022;-87
2022/06/30 09:10:05;;;;;;;6.35;3.53;;;23.60;79.50;;;;;;4994475;28;20538;-84
2022/06/30 09:12:31;;;;;;;7.80;4.35;;;23.60;79.30;;;;;;4993401;28;20355;-87
2022/06/30 09:14:57;;;;;;;11.40;4.63;;;23.60;79.10;;;;;;4994032;28;20113;-89
2022/06/30 09:17:25;;;;;;;5.97;3.47;;;23.70;78.90;;;;;;4993510;28;20058;-88
2022/06/30 09:20:04;;;;;;;10.05;3.88;;;23.70;78.80;;;;;;4993835;28;20077;-88
2022/06/30 09:22:37;;;;;;;5.80;3.20;;;23.80;79.40;;;;;;4993750;28;20417;-86
2022/06/30 09:25:06;;;;;;;6.45;3.05;;;23.80;78.70;;;;;;4994937;28;20029;-88
2022/06/30 09:27:34;;;;;;;6.13;3.10;;;23.80;78.30;;;;;;5009653;28;20025;-88
2022/06/30 09:30:04;;;;;;;7.45;2.97;;;23.90;77.90;;;;;;5008986;28;20015;-87
2022/06/30 09:32:42;;;;;;;5.07;2.55;;;23.90;77.50;;;;;;4995584;28;20136;-88
2022/06/30 09:35:10;;;;;;;5.75;2.60;;;24.00;77.00;;;;;;5009276;28;20027;-87
2022/06/30 09:37:36;;;;;;;5.50;2.10;;;24.10;76.80;;;;;;5015834;28;20019;-86
2022/06/30 09:40:01;;;;;;;5.68;2.25;;;24.10;76.30;;;;;;4998426;28;20045;-88
2022/06/30 09:42:46;;;;;;;7.63;2.67;;;24.10;75.70;;;;;;4996767;28;20474;-89
2022/06/30 09:45:14;;;;;;;6.80;2.70;;;24.20;75.30;;;;;;5012088;28;20076;-84
2022/06/30 09:47:54;;;;;;;7.60;2.65;;;24.20;74.80;;;;;;5013561;28;20030;-89
2022/06/30 09:50:21;;;;;;;5.70;1.80;;;24.20;74.40;;;;;;5014186;28;20030;-87
2022/06/30 09:53:03;;;;;;;4.50;1.90;;;24.30;74.50;;;;;;4996033;28;20049;-88
2022/06/30 09:55:39;;;;;;;5.25;2.13;;;24.30;74.30;;;;;;5014744;28;20018;-85
2022/06/30 09:58:06;;;;;;;5.95;1.95;;;24.50;74.10;;;;;;5016177;28;20034;-86
2022/06/30 10:00:46;;;;;;;7.35;2.17;;;24.50;73.80;;;;;;5016939;28;20018;-86
2022/06/30 10:03:11;;;;;;;4.55;1.58;;;24.60;73.30;;;;;;5016546;28;20072;-85
2022/06/30 10:05:43;;;;;;;6.25;1.77;;;24.60;73.10;;;;;;5001561;28;20018;-86
2022/06/30 10:08:10;;;;;;;8.00;2.92;;;24.70;73.10;;;;;;5018738;28;20075;-85
2022/06/30 10:10:36;;;;;;;9.07;2.13;;;24.70;72.90;;;;;;5017421;28;20366;-85
2022/06/30 10:13:02;;;;;;;5.47;2.78;;;24.80;72.80;;;;;;5017466;28;20037;-87
2022/06/30 10:15:32;;;;;;;7.15;2.22;;;24.80;72.50;;;;;;5016813;28;20486;-87
2022/06/30 10:17:59;;;;;;;7.13;2.90;;;24.80;72.50;;;;;;5015366;28;20445;-86
2022/06/30 10:20:28;;;;;;;8.57;2.95;;;24.90;72.50;;;;;;5016663;28;20509;-87
2022/06/30 10:22:54;;;;;;;4.50;2.05;;;24.90;72.30;;;;;;4999045;28;20111;-85
2022/06/30 10:25:23;;;;;;;6.30;2.88;;;25.00;72.40;;;;;;5015381;28;20022;-88
2022/06/30 10:27:50;;;;;;;6.30;2.60;;;25.00;72.20;;;;;;4999794;28;20028;-88
2022/06/30 10:30:21;;;;;;;9.10;3.10;;;25.10;72.20;;;;;;4999209;28;20030;-86
2022/06/30 10:33:17;;;;;;;7.65;2.58;;;25.20;72.20;;;;;;5016829;28;20029;-88
2022/06/30 10:35:51;;;;;;;6.25;1.85;;;25.30;72.20;;;;;;4999121;28;20042;-89
2022/06/30 10:38:33;;;;;;;6.20;2.60;;;25.30;72.10;;;;;;5016331;28;20022;-87
2022/06/30 10:41:12;;;;;;;5.85;2.13;;;25.40;72.00;;;;;;5016945;28;20466;-84
2022/06/30 10:43:56;;;;;;;4.03;1.85;;;25.50;71.60;;;;;;5016039;28;20032;-87
2022/06/30 10:46:24;;;;;;;6.05;2.42;;;25.70;71.60;;;;;;5016113;28;20049;-85
2022/06/30 10:48:53;;;;;;;4.13;1.88;;;25.80;71.40;;;;;;4998779;28;20415;-87
2022/06/30 10:51:19;;;;;;;5.13;2.03;;;25.90;71.00;;;;;;4998787;28;20473;-85
2022/06/30 10:53:47;;;;;;;5.60;2.50;;;26.00;70.70;;;;;;4999010;28;20028;-86
2022/06/30 10:56:13;;;;;;;9.13;3.20;;;26.10;70.50;;;;;;5015538;28;20026;-89
2022/06/30 10:59:04;;;;;;;7.50;2.35;;;26.30;70.20;;;;;;5015720;28;20040;-89
2022/06/30 11:01:30;;;;;;;5.70;1.85;;;26.50;69.50;;;;;;5016024;28;20427;-87
2022/06/30 11:03:57;;;;;;;7.95;1.98;;;26.60;69.30;;;;;;5016078;28;20026;-87
2022/06/30 11:06:26;;;;;;;5.82;1.80;;;26.70;69.00;;;;;;5014062;28;20022;-85
2022/06/30 11:09:28;;;;;;;7.05;2.40;;;26.90;68.90;;;;;;5015821;28;20030;-87
2022/06/30 11:11:54;;;;;;;6.95;2.17;;;27.00;68.40;;;;;;5008568;28;20038;-87
2022/06/30 11:14:19;;;;;;;6.20;1.77;;;27.20;68.00;;;;;;5014604;28;20029;-88
2022/06/30 11:16:47;;;;;;;5.45;1.58;;;27.30;67.60;;;;;;5016475;28;20034;-88
2022/06/30 11:19:20;;;;;;;6.30;2.03;;;27.40;67.20;;;;;;5014293;28;20026;-88
2022/06/30 11:21:45;;;;;;;6.68;2.03;;;27.50;66.60;;;;;;5014350;28;20026;-87
2022/06/30 11:24:13;;;;;;;6.65;2.05;;;27.70;65.90;;;;;;5014504;28;20033;-87
2022/06/30 11:29:26;;;;;;;6.10;1.70;;;27.90;65.10;;;;;;5015336;28;20053;-89
2022/06/30 11:31:58;;;;;;;7.15;1.60;;;28.10;64.90;;;;;;5015863;28;20026;-89
2022/06/30 11:34:24;;;;;;;5.63;1.55;;;28.20;64.30;;;;;;5014434;28;20029;-90
2022/06/30 11:36:49;;;;;;;4.28;1.52;;;28.40;64.10;;;;;;5015694;28;20429;-87
2022/06/30 11:39:20;;;;;;;5.10;1.25;;;28.60;63.60;;;;;;5014666;28;20060;-88
2022/06/30 11:41:55;;;;;;;6.47;1.35;;;28.70;63.20;;;;;;5014939;28;20065;-91
2022/06/30 11:44:25;;;;;;;4.93;1.52;;;28.90;63.00;;;;;;5013765;28;20018;-88
2022/06/30 11:46:58;;;;;;;4.57;1.20;;;29.10;62.40;;;;;;5014617;28;20022;-86
2022/06/30 11:49:40;;;;;;;2.97;1.05;;;29.20;61.90;;;;;;4997522;28;20121;-90
2022/06/30 11:52:21;;;;;;;5.45;1.23;;;29.50;61.30;;;;;;5012584;28;20053;-88
2022/06/30 11:54:53;;;;;;;3.10;0.85;;;29.70;60.80;;;;;;5013057;28;20017;-87
2022/06/30 11:57:22;;;;;;;5.75;1.50;;;29.80;60.50;;;;;;5013604;28;20433;-88
2022/06/30 11:59:54;;;;;;;2.88;1.10;;;29.90;60.30;;;;;;5014542;28;20049;-90
2022/06/30 12:02:30;;;;;;;3.57;1.00;;;30.10;59.60;;;;;;5012871;28;20046;-90
2022/06/30 12:05:20;;;;;;;;;;;;;;;;;;;;;
2022/06/30 12:07:47;;;;;;;3.55;1.02;;;30.50;58.40;;;;;;5014672;28;20029;-91
2022/06/30 12:10:15;;;;;;;3.33;0.90;;;30.80;58.20;;;;;;5014942;28;20026;-90
2022/06/30 12:12:42;;;;;;;3.03;1.10;;;31.00;57.60;;;;;;5013385;28;20030;-89
2022/06/30 12:15:13;;;;;;;3.95;0.85;;;31.20;57.30;;;;;;4997017;28;20026;-88
2022/06/30 12:17:48;;;;;;;2.30;0.60;;;31.50;56.80;;;;;;5013780;28;20010;-88
2022/06/30 12:20:16;;;;;;;5.63;1.20;;;31.70;56.10;;;;;;5013421;28;20053;-88
2022/06/30 12:22:47;;;;;;;3.08;0.80;;;31.90;55.80;;;;;;5019163;28;20077;-89
2022/06/30 12:25:14;;;;;;;4.90;0.80;;;32.10;55.20;;;;;;5013742;28;20026;-87
2022/06/30 12:27:51;;;;;;;4.65;0.98;;;32.30;54.50;;;;;;5008555;28;20505;-86
2022/06/30 12:30:23;;;;;;;4.97;0.73;;;32.50;53.60;;;;;;5007994;28;20053;-88
2022/06/30 12:32:57;;;;;;;3.17;0.70;;;32.80;53.50;;;;;;4999554;28;20421;-91
2022/06/30 12:35:25;;;;;;;2.47;0.65;;;33.00;52.70;;;;;;5016711;28;20037;-88
2022/06/30 12:37:53;;;;;;;5.15;0.95;;;33.20;52.40;;;;;;5008631;28;20025;-88
2022/06/30 12:40:21;;;;;;;3.30;0.80;;;33.40;51.90;;;;;;5017822;28;20084;-89
2022/06/30 12:42:54;;;;;;;2.95;0.57;;;33.60;51.10;;;;;;4999736;28;20038;-91
2022/06/30 12:45:36;;;;;;;2.72;0.73;;;33.80;50.80;;;;;;4997280;28;20026;-89
2022/06/30 12:48:05;;;;;;;6.72;0.95;;;34.00;49.70;;;;;;5004736;28;20030;-89
2022/06/30 12:50:35;;;;;;;3.65;0.70;;;34.30;50.00;;;;;;5010748;28;20023;-92
2022/06/30 12:53:24;;;;;;;4.63;0.82;;;34.40;49.30;;;;;;4994933;28;20045;-90
2022/06/30 12:56:00;;;;;;;2.53;0.65;;;34.40;48.30;;;;;;4994585;28;20057;-89
2022/06/30 12:58:41;;;;;;;6.25;0.80;;;34.40;48.30;;;;;;4994809;28;20045;-90
2022/06/30 13:01:06;;;;;;;3.92;0.70;;;34.40;48.40;;;;;;5011327;28;20169;-90